Impacts TAF Board INFO
FOR SITUATIONAL AWARENESS. NOT TO BE USED FOR FLIGHT PLANNING PURPOSES.
IDs:

KLAX - Los Angeles Intl, CA, US

Issued at 2341 UTC 22 Jun 2018
Updated at 0021 UTC 23 Jun 2018
Potential Impact None Slight Moderate High
Time<<23/13Z 23/14Z 23/15Z 23/16Z 23/17Z 23/18Z 23/19Z 23/20Z 23/21Z 23/22Z 23/23Z 24/00Z 24/01Z>>
Type PRVL PRVL PRVL PRVL PRVL PRVL PRVL PRVL PRVL PRVL PRVL PRVL PRVL
VIS 4 3 3 3 >6 >6 >6 >6 >6 >6 >6 >6 >6
CIG 7 10 10 10 12 12 12 -- -- -- -- -- --
Cover OVC OVC OVC OVC OVC OVC OVC SKC SKC SKC SKC SKC SKC
FltCat IFR MVFR MVFR MVFR MVFR MVFR MVFR VFR VFR VFR VFR VFR VFR
WX BR BR BR BR -- -- -- -- -- -- -- -- --
WDir VRB VRB VRB VRB 240 240 240 250 250 250 250 250 250
WSpd 3 3 3 3 6 6 6 11 11 11 11 11 11
WGst -- -- -- -- -- -- -- -- -- -- -- -- --

Raw TAF
KLAX 222341Z 2300/2406 25012KT P6SM OVC010
  FM230300 26005KT P6SM OVC009
  FM231000 VRB03KT 4SM BR OVC007
  FM231400 VRB03KT 3SM BR OVC010
  FM231700 24006KT P6SM OVC012
  FM232000 25011KT P6SM SKC
  FM240300 26007KT P6SM BKN012


METAR Board
Radar Display
Forecast Discussion

FOR SITUATIONAL AWARENESS. NOT TO BE USED FOR FLIGHT PLANNING PURPOSES.